Ana Sayfa
METAR-TAF:

METAR-TAF

Havaalanları :

Dublin Havalimanı

Dublin, İrlanda

Enlem: 53-26N, Boylam: 006-15W, yükseklik: 68 m

Güncel hava durumu gözlemi

Rapor saat 00:00 UTC de 34 dakika önce yapıldı.
Rüzgar batı/güneybatıdan 4 kt
Sıcaklık 17°C
Nem 63%
Basınç 1025 hPa
Görüş mesafesi 10 km veya daha fazla
1500 m altında bulut yok ve kümülonimbus yok

METAR: EIDW 250000Z 24004KT CAVOK 17/10 Q1025 NOSIG

Saat: 01:34 (00:34 UTC)

Tahmin

Rapor saat 23:00 UTC de 1 saat ve 34 dakika önce yapıldı.
Ayın 25'si saat 00 UTC'den ayın 25'si saat 24 UTC'ye kadar geçerli Tahmin
Rüzgar batı/güneybatıdan 8 kt
Görüş mesafesi 10 km veya daha fazla
1500 m altında bulut yok ve kümülonimbus yok
Dönüşüyor
ayın 25'si saat 07 UTC'den ayın 25'si saat 10 UTC'ye kadar
Rüzgar güneydoğudan 8 kt
Dönüşüyor
ayın 25'si saat 18 UTC'den ayın 25'si saat 21 UTC'ye kadar
Rüzgar değişken yönden 3 kt

TAF: EIDW 242300Z 2500/2524 24008KT CAVOK BECMG 2507/2510 14008KT BECMG 2518/2521 VRB03KT

4.000'den fazla havaalanı için hava durumu gözlemleri ve tahminleri (METAR ve TAF raporları).

Kullanılabilir istasyonlar harita üzerinde sarı ve kırmızı noktalarla gösterilir.

İstasyonun adını görmek için fareyi noktanın üzerinde gezdirin.

Sonrasında hava gözlem ve tahminlerini görmek için tıklayın.

Haritayı değiştirmek için: yaklaştırmak için siyah artı işaretli yeşil düğmeye ve uzaklaştırmak için de eksi işaretli düğmeye hızla tıklayın; bitişik haritalar için yeşil okları kullanın.


METAR-TAF: